createdAt,value
2019-02-17T00:00:35.483Z,71.11
2019-02-17T00:01:35.289Z,71.63
2019-02-17T00:02:35.763Z,71.63
2019-02-17T00:03:35.255Z,71.63
2019-02-17T00:04:35.323Z,70.90
2019-02-17T00:05:35.285Z,71.94
2019-02-17T00:06:36.232Z,71.77
2019-02-17T00:07:35.493Z,72.15
2019-02-17T00:08:35.198Z,72.28
2019-02-17T00:09:35.179Z,71.87
2019-02-17T00:10:35.205Z,72.18
2019-02-17T00:11:35.189Z,73.01
2019-02-17T00:12:35.872Z,72.39
2019-02-17T00:13:35.141Z,73.01
2019-02-17T00:14:35.222Z,72.60
2019-02-17T00:15:35.123Z,72.74
2019-02-17T00:16:35.129Z,73.05
2019-02-17T00:17:35.111Z,72.91
2019-02-17T00:18:35.395Z,72.60
2019-02-17T00:19:35.119Z,72.39
2019-02-17T00:20:35.082Z,73.01
2019-02-17T00:21:35.181Z,73.05
2019-02-17T00:22:35.057Z,73.05
2019-02-17T00:23:35.087Z,73.15
2019-02-17T00:24:35.386Z,72.49
2019-02-17T00:25:35.022Z,73.15
2019-02-17T00:26:35.022Z,72.91
2019-02-17T00:27:35.000Z,72.80
2019-02-17T00:28:35.179Z,72.01
2019-02-17T00:29:35.601Z,72.18
2019-02-17T00:30:36.541Z,72.70
2019-02-17T00:31:34.972Z,72.08
2019-02-17T00:32:34.982Z,71.66
2019-02-17T00:33:34.941Z,71.97
2019-02-17T00:34:38.952Z,71.77
2019-02-17T00:35:34.896Z,71.97
2019-02-17T00:36:34.955Z,71.87
2019-02-17T00:37:34.878Z,72.08
2019-02-17T00:38:35.035Z,71.87
2019-02-17T00:39:34.891Z,70.83
2019-02-17T00:40:35.451Z,71.87
2019-02-17T00:41:34.849Z,72.49
2019-02-17T00:42:34.836Z,72.53
2019-02-17T00:43:34.862Z,72.74
2019-02-17T00:44:34.815Z,73.05
2019-02-17T00:45:34.803Z,73.15
2019-02-17T00:46:34.969Z,72.84
2019-02-17T00:47:34.781Z,72.74
2019-02-17T00:48:34.768Z,72.32
2019-02-17T00:49:34.746Z,72.11
2019-02-17T00:50:34.779Z,72.42
2019-02-17T00:51:35.135Z,72.74
2019-02-17T00:52:34.782Z,73.98
2019-02-17T00:53:34.847Z,73.67
2019-02-17T00:54:34.713Z,73.46
2019-02-17T00:55:35.553Z,73.46
2019-02-17T00:56:34.680Z,73.36
2019-02-17T00:57:35.499Z,73.39
2019-02-17T00:58:34.721Z,73.70
2019-02-17T00:59:34.655Z,73.80
2019-02-17T01:00:35.357Z,74.11
2019-02-17T01:01:41.327Z,74.22
2019-02-17T01:02:34.877Z,74.84
2019-02-17T01:03:36.608Z,74.95
2019-02-17T01:04:34.649Z,75.09
2019-02-17T01:05:34.760Z,75.09
2019-02-17T01:06:34.649Z,75.40
2019-02-17T01:07:34.560Z,75.60
2019-02-17T01:08:34.739Z,75.81
2019-02-17T01:09:34.547Z,75.74
2019-02-17T01:10:34.899Z,76.12
2019-02-17T01:11:34.513Z,75.81
2019-02-17T01:12:34.510Z,75.81
2019-02-17T01:13:34.488Z,75.60
2019-02-17T01:14:34.471Z,75.74
2019-02-17T01:15:34.579Z,76.06
2019-02-17T01:16:34.808Z,75.64
2019-02-17T01:17:34.463Z,75.85
2019-02-17T01:18:34.435Z,75.54
2019-02-17T01:19:34.437Z,75.74
2019-02-17T01:20:34.409Z,76.06
2019-02-17T01:21:34.413Z,76.12
2019-02-17T01:22:34.522Z,75.50
2019-02-17T01:23:34.469Z,74.77
2019-02-17T01:24:34.390Z,75.09
2019-02-17T01:25:34.472Z,74.77
2019-02-17T01:26:34.345Z,73.94
2019-02-17T01:27:34.661Z,74.26
2019-02-17T01:28:34.325Z,74.15
2019-02-17T01:29:34.476Z,73.94
2019-02-17T01:30:34.326Z,74.88
2019-02-17T01:31:34.301Z,75.50
2019-02-17T01:32:34.279Z,75.40
2019-02-17T01:33:34.289Z,75.81
2019-02-17T01:34:34.337Z,76.26
2019-02-17T01:35:34.559Z,76.26
2019-02-17T01:36:34.241Z,76.26
2019-02-17T01:37:34.225Z,76.37
2019-02-17T01:38:34.242Z,76.47
2019-02-17T01:39:34.269Z,75.64
2019-02-17T01:40:34.323Z,75.54
2019-02-17T01:41:34.487Z,74.77
2019-02-17T01:42:34.280Z,73.84
2019-02-17T01:43:34.371Z,74.05
2019-02-17T01:44:34.419Z,73.94
2019-02-17T01:45:34.157Z,73.84
2019-02-17T01:46:34.215Z,75.12
2019-02-17T01:47:34.632Z,74.98
2019-02-17T01:48:34.599Z,73.84
2019-02-17T01:49:34.180Z,74.46
2019-02-17T01:50:34.167Z,75.09
2019-02-17T01:51:34.185Z,75.43
2019-02-17T01:52:34.205Z,75.43
2019-02-17T01:53:34.623Z,75.64
2019-02-17T01:54:34.152Z,75.32
2019-02-17T01:55:34.133Z,75.22
2019-02-17T01:56:34.135Z,75.54
2019-02-17T01:57:34.472Z,75.22
2019-02-17T01:58:34.031Z,76.06
2019-02-17T01:59:34.150Z,75.95
2019-02-17T02:00:33.990Z,76.06
2019-02-17T02:01:34.275Z,76.06
2019-02-17T02:02:33.950Z,76.26
2019-02-17T02:03:34.646Z,75.54
2019-02-17T02:04:33.940Z,75.74
2019-02-17T02:05:33.925Z,75.95
2019-02-17T02:06:38.242Z,76.26
2019-02-17T02:07:34.218Z,76.29
2019-02-17T02:08:35.828Z,75.98
2019-02-17T02:09:34.020Z,75.88
2019-02-17T02:10:33.866Z,76.72
2019-02-17T02:11:33.867Z,77.44
2019-02-17T02:12:33.867Z,77.44
2019-02-17T02:13:33.826Z,77.13
2019-02-17T02:14:34.172Z,77.44
2019-02-17T02:15:33.809Z,77.65
2019-02-17T02:16:33.862Z,77.58
2019-02-17T02:17:34.150Z,77.44
2019-02-17T02:18:34.177Z,77.37
2019-02-17T02:19:33.995Z,77.34
2019-02-17T02:20:33.812Z,77.58
2019-02-17T02:21:33.753Z,77.58
2019-02-17T02:22:35.528Z,77.13
2019-02-17T02:23:33.722Z,77.16
2019-02-17T02:24:34.303Z,77.06
2019-02-17T02:25:34.175Z,77.37
2019-02-17T02:26:33.722Z,77.48
2019-02-17T02:27:33.679Z,77.79
2019-02-17T02:28:33.671Z,77.58
2019-02-17T02:29:40.740Z,77.48
2019-02-17T02:30:35.039Z,77.58
2019-02-17T02:31:33.693Z,77.37
2019-02-17T02:32:33.643Z,77.79
2019-02-17T02:33:38.715Z,77.58
2019-02-17T02:34:33.639Z,77.89
2019-02-17T02:35:33.616Z,77.48
2019-02-17T02:36:33.950Z,77.79
2019-02-17T02:37:33.560Z,77.13
2019-02-17T02:38:33.564Z,77.44
2019-02-17T02:39:33.662Z,76.29
2019-02-17T02:40:33.614Z,77.03
2019-02-17T02:41:35.210Z,76.82
2019-02-17T02:42:35.339Z,76.16
2019-02-17T02:43:33.495Z,76.26
2019-02-17T02:44:33.510Z,76.29
2019-02-17T02:45:33.484Z,76.47
2019-02-17T02:46:33.481Z,76.19
2019-02-17T02:47:33.468Z,76.19
2019-02-17T02:48:33.735Z,76.09
2019-02-17T02:49:33.656Z,76.82
2019-02-17T02:50:33.502Z,76.72
2019-02-17T02:51:35.514Z,76.82
2019-02-17T02:52:33.435Z,77.34
2019-02-17T02:53:33.404Z,77.03
2019-02-17T02:54:33.870Z,77.23
2019-02-17T02:55:33.852Z,77.06
2019-02-17T02:56:33.379Z,76.33
2019-02-17T02:57:33.367Z,77.65
2019-02-17T02:58:33.344Z,77.58
2019-02-17T02:59:33.317Z,77.27
2019-02-17T03:00:33.439Z,77.06
2019-02-17T03:01:33.317Z,77.37
2019-02-17T03:02:33.410Z,77.58
2019-02-17T03:03:33.435Z,77.83
2019-02-17T03:04:33.651Z,78.03
2019-02-17T03:05:33.295Z,77.69
2019-02-17T03:06:33.257Z,77.61
2019-02-17T03:07:33.918Z,78.14
2019-02-17T03:08:34.634Z,78.00
2019-02-17T03:09:34.510Z,78.03
2019-02-17T03:10:33.290Z,78.00
2019-02-17T03:11:33.391Z,78.10
2019-02-17T03:12:33.255Z,78.24
2019-02-17T03:13:33.170Z,78.34
2019-02-17T03:14:33.689Z,77.89
2019-02-17T03:15:33.720Z,78.14
2019-02-17T03:16:33.151Z,77.93
2019-02-17T03:17:33.486Z,78.14
2019-02-17T03:18:33.111Z,77.93
2019-02-17T03:19:33.120Z,78.03
2019-02-17T03:20:33.126Z,78.14
2019-02-17T03:21:33.097Z,78.45
2019-02-17T03:22:33.532Z,78.34
2019-02-17T03:23:33.058Z,78.45
2019-02-17T03:24:33.047Z,78.76
2019-02-17T03:25:33.044Z,78.66
2019-02-17T03:26:33.081Z,78.86
2019-02-17T03:27:33.011Z,78.66
2019-02-17T03:28:33.635Z,78.97
2019-02-17T03:29:33.090Z,78.66
2019-02-17T03:30:33.001Z,78.86
2019-02-17T03:31:33.117Z,78.76
2019-02-17T03:32:39.978Z,78.86
2019-02-17T03:33:32.996Z,78.76
2019-02-17T03:34:33.077Z,78.97
2019-02-17T03:35:32.932Z,78.76
2019-02-17T03:36:32.912Z,78.76
2019-02-17T03:37:32.944Z,78.45
2019-02-17T03:38:32.884Z,78.97
2019-02-17T03:39:32.995Z,78.34
2019-02-17T03:40:33.085Z,78.45
2019-02-17T03:41:33.842Z,78.45
2019-02-17T03:42:32.909Z,78.41
2019-02-17T03:43:37.138Z,78.45
2019-02-17T03:44:32.841Z,78.86
2019-02-17T03:45:33.036Z,78.72
2019-02-17T03:46:32.957Z,78.86
2019-02-17T03:47:32.787Z,79.17
2019-02-17T03:48:32.891Z,78.86
2019-02-17T03:49:32.804Z,78.93
2019-02-17T03:50:32.765Z,80.01
2019-02-17T03:51:32.799Z,78.86
2019-02-17T03:52:33.121Z,79.14
2019-02-17T03:53:32.722Z,78.66
2019-02-17T03:54:32.767Z,78.97
2019-02-17T03:55:32.721Z,78.76
2019-02-17T03:56:32.801Z,78.45
2019-02-17T03:57:32.702Z,78.45
2019-02-17T03:58:33.263Z,78.45
2019-02-17T03:59:32.666Z,78.76
2019-02-17T04:00:32.664Z,78.86
2019-02-17T04:01:32.648Z,78.45
2019-02-17T04:02:33.210Z,78.76
2019-02-17T04:03:32.754Z,78.76
2019-02-17T04:04:33.133Z,78.69
2019-02-17T04:05:32.595Z,79.17
2019-02-17T04:06:32.594Z,78.86
2019-02-17T04:07:32.922Z,80.11
2019-02-17T04:08:32.934Z,79.00
2019-02-17T04:09:33.967Z,79.83
2019-02-17T04:10:37.215Z,79.42
2019-02-17T04:11:33.698Z,79.21
2019-02-17T04:12:32.521Z,79.38
2019-02-17T04:13:32.587Z,79.52
2019-02-17T04:14:32.503Z,79.28
2019-02-17T04:15:32.524Z,79.28
2019-02-17T04:16:32.683Z,79.38
2019-02-17T04:17:32.830Z,79.28
2019-02-17T04:18:33.611Z,79.63
2019-02-17T04:19:32.444Z,79.42
2019-02-17T04:20:32.436Z,79.49
2019-02-17T04:21:33.461Z,79.69
2019-02-17T04:22:32.443Z,79.59
2019-02-17T04:23:32.632Z,79.38
2019-02-17T04:24:32.517Z,79.73
2019-02-17T04:25:32.369Z,79.83
2019-02-17T04:26:32.630Z,80.05
2019-02-17T04:27:32.385Z,80.11
2019-02-17T04:28:32.695Z,79.83
2019-02-17T04:29:32.363Z,80.15
2019-02-17T04:30:32.321Z,80.15
2019-02-17T04:31:32.669Z,80.46
2019-02-17T04:32:32.348Z,80.26
2019-02-17T04:33:33.883Z,80.15
2019-02-17T04:34:32.716Z,79.83
2019-02-17T04:35:32.257Z,80.05
2019-02-17T04:36:32.270Z,79.63
2019-02-17T04:37:32.257Z,80.05
2019-02-17T04:38:32.229Z,79.73
2019-02-17T04:39:34.735Z,80.05
2019-02-17T04:40:32.864Z,80.46
2019-02-17T04:41:32.199Z,80.29
2019-02-17T04:42:32.195Z,80.05
2019-02-17T04:43:32.952Z,80.57
2019-02-17T04:44:32.525Z,80.29
2019-02-17T04:45:32.238Z,80.26
2019-02-17T04:46:32.677Z,80.26
2019-02-17T04:47:32.134Z,80.29
2019-02-17T04:48:32.128Z,81.02
2019-02-17T04:49:32.113Z,81.12
2019-02-17T04:50:32.110Z,81.12
2019-02-17T04:51:32.206Z,80.88
2019-02-17T04:52:32.692Z,81.33
2019-02-17T04:53:32.169Z,80.81
2019-02-17T04:54:32.150Z,80.46
2019-02-17T04:55:32.156Z,80.88
2019-02-17T04:56:32.778Z,80.98
2019-02-17T04:57:32.018Z,80.36
2019-02-17T04:58:32.021Z,80.46
2019-02-17T04:59:31.998Z,80.05
2019-02-17T05:00:40.205Z,80.26
2019-02-17T05:01:33.225Z,80.40
2019-02-17T05:02:32.171Z,79.98
2019-02-17T05:03:31.965Z,80.57
2019-02-17T05:04:31.975Z,80.57
2019-02-17T05:05:31.934Z,80.57
2019-02-17T05:06:31.925Z,80.36
2019-02-17T05:07:32.476Z,80.15
2019-02-17T05:08:31.905Z,80.26
2019-02-17T05:09:33.558Z,80.36
2019-02-17T05:10:32.618Z,79.87
2019-02-17T05:11:32.096Z,79.77
2019-02-17T05:12:32.065Z,80.29
2019-02-17T05:13:32.117Z,80.57
2019-02-17T05:14:33.064Z,80.71
2019-02-17T05:15:32.146Z,80.26
2019-02-17T05:16:32.858Z,80.60
2019-02-17T05:17:32.211Z,80.91
2019-02-17T05:18:31.793Z,80.91
2019-02-17T05:19:31.915Z,81.23
2019-02-17T05:20:31.765Z,81.02
2019-02-17T05:21:32.804Z,80.40
2019-02-17T05:22:32.482Z,80.67
2019-02-17T05:23:31.745Z,80.29
2019-02-17T05:24:31.736Z,79.94
2019-02-17T05:25:31.710Z,80.15
2019-02-17T05:26:31.709Z,79.63
2019-02-17T05:27:32.034Z,79.73
2019-02-17T05:28:31.684Z,79.63
2019-02-17T05:29:33.141Z,79.21
2019-02-17T05:30:31.661Z,79.83
2019-02-17T05:31:31.652Z,79.42
2019-02-17T05:32:31.644Z,79.42
2019-02-17T05:33:32.030Z,79.21
2019-02-17T05:34:31.670Z,79.63
2019-02-17T05:35:31.619Z,79.42
2019-02-17T05:36:31.712Z,79.73
2019-02-17T05:37:31.606Z,79.42
2019-02-17T05:38:31.608Z,79.21
2019-02-17T05:39:31.774Z,79.63
2019-02-17T05:40:31.558Z,79.52
2019-02-17T05:41:31.552Z,79.42
2019-02-17T05:42:31.528Z,79.42
2019-02-17T05:43:31.522Z,79.83
2019-02-17T05:44:31.527Z,79.35
2019-02-17T05:45:31.714Z,79.87
2019-02-17T05:46:31.522Z,79.87
2019-02-17T05:47:31.490Z,80.19
2019-02-17T05:48:31.468Z,80.40
2019-02-17T05:49:32.583Z,80.40
2019-02-17T05:50:31.934Z,80.71
2019-02-17T05:51:31.535Z,80.91
2019-02-17T05:52:31.452Z,81.16
2019-02-17T05:53:31.419Z,80.95
2019-02-17T05:54:31.413Z,81.05
2019-02-17T05:55:31.417Z,81.05
2019-02-17T05:56:31.622Z,81.16
2019-02-17T05:57:31.383Z,81.16
2019-02-17T05:58:33.589Z,81.05
2019-02-17T05:59:31.375Z,81.26
2019-02-17T06:00:31.450Z,81.16
2019-02-17T06:01:31.330Z,81.16
2019-02-17T06:02:33.060Z,81.05
2019-02-17T06:03:31.341Z,80.95
2019-02-17T06:04:31.516Z,80.85
2019-02-17T06:05:34.065Z,81.16
2019-02-17T06:06:31.273Z,81.05
2019-02-17T06:07:31.261Z,81.16
2019-02-17T06:08:33.899Z,81.16
2019-02-17T06:09:32.183Z,81.02
2019-02-17T06:10:31.488Z,80.81
2019-02-17T06:11:31.342Z,81.05
2019-02-17T06:12:31.501Z,81.43
2019-02-17T06:13:31.472Z,81.43
2019-02-17T06:14:32.242Z,81.12
2019-02-17T06:15:31.174Z,80.91
2019-02-17T06:16:31.171Z,81.05
2019-02-17T06:17:31.153Z,81.02
2019-02-17T06:18:31.141Z,80.91
2019-02-17T06:19:32.233Z,81.23
2019-02-17T06:20:31.609Z,80.29
2019-02-17T06:21:31.575Z,81.02
2019-02-17T06:22:31.118Z,80.91
2019-02-17T06:23:31.149Z,80.40
2019-02-17T06:24:31.085Z,81.23
2019-02-17T06:25:31.210Z,80.91
2019-02-17T06:26:31.260Z,80.40
2019-02-17T06:27:31.102Z,80.71
2019-02-17T06:28:31.038Z,80.50
2019-02-17T06:29:31.029Z,80.60
2019-02-17T06:30:31.347Z,80.60
2019-02-17T06:31:31.550Z,79.98
2019-02-17T06:32:31.002Z,80.29
2019-02-17T06:33:31.238Z,80.46
2019-02-17T06:34:30.974Z,80.15
2019-02-17T06:35:30.969Z,80.05
2019-02-17T06:36:30.952Z,79.52
2019-02-17T06:37:31.138Z,79.73
2019-02-17T06:38:30.954Z,79.42
2019-02-17T06:39:32.010Z,79.69
2019-02-17T06:40:31.006Z,78.86
2019-02-17T06:41:30.894Z,78.66
2019-02-17T06:42:31.078Z,78.34
2019-02-17T06:43:31.322Z,78.45
2019-02-17T06:44:31.475Z,78.24
2019-02-17T06:45:30.855Z,77.51
2019-02-17T06:46:30.846Z,77.58
2019-02-17T06:47:30.851Z,77.61
2019-02-17T06:48:32.858Z,77.69
2019-02-17T06:49:30.874Z,77.83
2019-02-17T06:50:32.822Z,77.37
2019-02-17T06:51:30.787Z,77.37
2019-02-17T06:52:30.779Z,77.13
2019-02-17T06:53:30.792Z,77.23
2019-02-17T06:54:30.781Z,76.09
2019-02-17T06:55:30.811Z,76.40
2019-02-17T06:56:31.071Z,76.29
2019-02-17T06:57:30.837Z,75.98
2019-02-17T06:58:30.736Z,76.16
2019-02-17T06:59:30.783Z,75.95
2019-02-17T07:00:30.702Z,75.22
2019-02-17T07:01:30.900Z,75.43
2019-02-17T07:02:31.675Z,75.54
2019-02-17T07:03:31.313Z,74.98
2019-02-17T07:04:30.651Z,74.88
2019-02-17T07:05:30.662Z,74.15
2019-02-17T07:06:30.900Z,73.84
2019-02-17T07:07:30.880Z,73.94
2019-02-17T07:08:31.944Z,73.84
2019-02-17T07:09:30.734Z,73.94
2019-02-17T07:10:30.586Z,73.60
2019-02-17T07:11:31.895Z,73.49
2019-02-17T07:12:30.878Z,73.39
2019-02-17T07:13:30.601Z,73.05
2019-02-17T07:14:30.658Z,72.74
2019-02-17T07:15:30.536Z,72.32
2019-02-17T07:16:30.532Z,72.74
2019-02-17T07:17:35.246Z,72.01
2019-02-17T07:18:30.511Z,72.01
2019-02-17T07:19:30.487Z,71.56
2019-02-17T07:20:30.464Z,71.87
2019-02-17T07:21:30.482Z,71.56
2019-02-17T07:22:30.463Z,71.14
2019-02-17T07:23:30.656Z,70.94
2019-02-17T07:24:30.673Z,70.70
2019-02-17T07:25:31.275Z,70.90
2019-02-17T07:26:30.407Z,70.90
2019-02-17T07:27:30.537Z,71.42
2019-02-17T07:28:30.393Z,69.87
2019-02-17T07:29:30.580Z,71.14
2019-02-17T07:30:30.382Z,70.94
2019-02-17T07:31:34.999Z,71.01
2019-02-17T07:32:30.346Z,70.80
2019-02-17T07:33:45.277Z,70.59
2019-02-17T07:34:30.356Z,70.46
2019-02-17T07:35:30.791Z,70.15
2019-02-17T07:36:30.315Z,70.15
2019-02-17T07:37:33.758Z,70.11
2019-02-17T07:38:30.749Z,69.70
2019-02-17T07:39:30.283Z,69.70
2019-02-17T07:40:30.248Z,69.60
2019-02-17T07:41:31.076Z,69.49
2019-02-17T07:42:30.557Z,69.18
2019-02-17T07:43:30.745Z,68.94
2019-02-17T07:44:34.135Z,68.53
2019-02-17T07:45:30.743Z,67.46
2019-02-17T07:46:40.297Z,67.39
2019-02-17T07:47:30.500Z,67.77
2019-02-17T07:48:30.715Z,67.77
2019-02-17T07:49:30.196Z,68.08
2019-02-17T07:50:30.471Z,67.67
2019-02-17T07:51:35.602Z,67.22
2019-02-17T07:52:30.267Z,66.81
2019-02-17T07:53:30.677Z,67.43
2019-02-17T07:54:30.960Z,67.33
2019-02-17T07:55:30.607Z,66.91
2019-02-17T07:56:30.104Z,66.67
2019-02-17T07:57:32.711Z,66.67
2019-02-17T07:58:30.190Z,66.60
2019-02-17T07:59:30.223Z,66.57
2019-02-17T08:00:30.035Z,66.26
2019-02-17T08:01:45.047Z,66.26
2019-02-17T08:02:31.636Z,66.23
2019-02-17T08:03:30.258Z,65.37
2019-02-17T08:04:30.474Z,65.48
2019-02-17T08:05:30.218Z,64.83
2019-02-17T08:06:30.482Z,63.90
2019-02-17T08:08:39.746Z,63.25
2019-02-17T08:09:39.692Z,62.06
2019-02-17T08:10:39.695Z,59.78
2019-02-17T08:11:39.682Z,57.85
2019-02-17T08:12:40.522Z,54.97
2019-02-17T08:13:39.683Z,52.34
2019-02-17T08:14:39.665Z,48.74
2019-02-17T08:15:39.636Z,47.45
2019-02-17T08:16:39.625Z,46.06
2019-02-17T08:17:39.685Z,44.69
2019-02-17T08:18:39.635Z,43.23
2019-02-17T08:19:39.582Z,41.35
2019-02-17T08:20:39.612Z,39.49
2019-02-17T08:21:39.572Z,39.08
2019-02-17T08:22:39.557Z,39.18
2019-02-17T08:23:39.582Z,38.98
2019-02-17T08:24:39.547Z,39.40
2019-02-17T08:25:39.558Z,40.54
2019-02-17T08:26:39.519Z,39.08
2019-02-17T08:27:39.513Z,38.10
2019-02-17T08:28:39.536Z,36.87
2019-02-17T08:29:39.489Z,36.12
2019-02-17T08:30:39.479Z,36.22
2019-02-17T08:31:39.476Z,35.19
2019-02-17T08:32:39.459Z,35.48
2019-02-17T08:33:39.460Z,34.25
2019-02-17T08:34:39.443Z,33.63
2019-02-17T08:35:39.449Z,34.03
2019-02-17T08:36:39.429Z,33.44
2019-02-17T08:37:39.420Z,33.34
2019-02-17T08:38:39.434Z,33.84
2019-02-17T08:39:39.404Z,33.41
2019-02-17T08:40:39.377Z,32.10
2019-02-17T08:41:39.362Z,32.27
2019-02-17T08:42:39.363Z,31.35
2019-02-17T08:43:39.322Z,32.18
2019-02-17T08:44:39.972Z,31.65
2019-02-17T08:45:39.301Z,31.29
2019-02-17T08:46:39.330Z,29.22
2019-02-17T08:47:39.293Z,28.17
2019-02-17T08:48:39.277Z,27.35
2019-02-17T08:49:39.285Z,26.72
2019-02-17T08:50:39.252Z,25.91
2019-02-17T08:51:39.266Z,26.23
2019-02-17T08:52:39.254Z,26.82
2019-02-17T08:53:39.257Z,26.31
2019-02-17T08:54:39.210Z,25.79
2019-02-17T08:55:39.194Z,25.20
2019-02-17T08:56:39.210Z,25.28
2019-02-17T08:57:39.201Z,25.07
2019-02-17T08:58:39.195Z,24.77
2019-02-17T08:59:39.167Z,24.41
2019-02-17T09:00:39.145Z,25.42
2019-02-17T09:01:40.485Z,25.71
2019-02-17T09:02:40.707Z,25.71
2019-02-17T09:03:39.112Z,25.70
2019-02-17T09:04:39.126Z,25.31
2019-02-17T09:05:44.117Z,25.60
2019-02-17T09:06:40.115Z,24.86
2019-02-17T09:07:39.820Z,23.94
2019-02-17T09:08:54.104Z,23.03
2019-02-17T09:09:39.076Z,23.54
2019-02-17T09:10:39.038Z,23.14
2019-02-17T09:11:39.051Z,23.93
2019-02-17T09:12:39.015Z,23.53
2019-02-17T09:13:39.044Z,23.54
2019-02-17T09:14:39.019Z,23.45
2019-02-17T09:15:38.988Z,23.45
2019-02-17T09:16:38.986Z,23.44
2019-02-17T09:17:38.956Z,23.34
2019-02-17T09:18:38.935Z,22.84
2019-02-17T09:19:38.985Z,23.54
2019-02-17T09:20:38.921Z,23.64
2019-02-17T09:21:38.911Z,23.34
2019-02-17T09:22:38.980Z,23.04
2019-02-17T09:23:39.042Z,23.14
2019-02-17T09:24:39.006Z,23.94
2019-02-17T09:25:38.864Z,23.33
2019-02-17T09:26:38.908Z,23.84
2019-02-17T09:27:38.875Z,23.34
2019-02-17T09:28:38.856Z,24.17
2019-02-17T09:29:38.827Z,24.88
2019-02-17T09:30:38.802Z,25.10
2019-02-17T09:31:38.800Z,25.29
2019-02-17T09:32:38.805Z,25.20
2019-02-17T09:33:38.802Z,25.20
2019-02-17T09:34:38.791Z,25.20
2019-02-17T09:35:38.758Z,25.83
2019-02-17T09:36:38.738Z,26.34
2019-02-17T09:37:38.728Z,26.53
2019-02-17T09:38:38.734Z,26.84
2019-02-17T09:39:38.860Z,26.73
2019-02-17T09:40:38.738Z,26.62
2019-02-17T09:41:38.686Z,25.40
2019-02-17T09:42:38.689Z,25.28
2019-02-17T09:43:38.669Z,25.17
2019-02-17T09:44:38.657Z,24.79
2019-02-17T09:45:38.682Z,25.21
2019-02-17T09:46:38.654Z,25.42
2019-02-17T09:47:38.635Z,26.03
2019-02-17T09:48:38.658Z,26.25
2019-02-17T09:49:38.612Z,26.23
2019-02-17T09:50:38.600Z,26.22
2019-02-17T09:51:38.612Z,26.33
2019-02-17T09:52:38.585Z,27.16
2019-02-17T09:53:38.619Z,26.66
2019-02-17T09:54:38.608Z,26.14
2019-02-17T09:55:38.550Z,26.12
2019-02-17T09:56:38.526Z,25.49
2019-02-17T09:57:38.515Z,26.22
2019-02-17T09:58:38.515Z,26.42
2019-02-17T09:59:38.570Z,25.61
2019-02-17T10:00:38.482Z,25.60
2019-02-17T10:01:38.487Z,26.72
2019-02-17T10:02:38.459Z,26.53
2019-02-17T10:03:38.455Z,26.96
2019-02-17T10:04:38.461Z,27.67
2019-02-17T10:05:38.432Z,28.17
2019-02-17T10:06:38.428Z,27.67
2019-02-17T10:07:38.423Z,27.45
2019-02-17T10:08:38.422Z,26.59
2019-02-17T10:09:38.392Z,24.96
2019-02-17T10:10:38.391Z,23.33
2019-02-17T10:11:38.428Z,23.02
2019-02-17T10:12:38.385Z,23.52
2019-02-17T10:13:38.407Z,23.53
2019-02-17T10:14:38.343Z,23.53
2019-02-17T10:15:38.339Z,23.30
2019-02-17T10:16:38.305Z,23.11
2019-02-17T10:17:38.335Z,23.21
2019-02-17T10:18:38.295Z,23.95
2019-02-17T10:19:38.308Z,25.17
2019-02-17T10:20:38.269Z,24.95
2019-02-17T10:21:38.269Z,23.72
2019-02-17T10:22:38.238Z,23.94
2019-02-17T10:23:38.237Z,23.55
2019-02-17T10:24:38.217Z,24.35
2019-02-17T10:25:38.246Z,24.79
2019-02-17T10:26:38.208Z,25.70
2019-02-17T10:27:38.197Z,25.72
2019-02-17T10:28:42.425Z,26.32
2019-02-17T10:29:38.165Z,26.12
2019-02-17T10:30:38.155Z,26.83
2019-02-17T10:31:38.193Z,27.04
2019-02-17T10:32:39.226Z,27.86
2019-02-17T10:33:38.126Z,28.05
2019-02-17T10:34:38.117Z,26.32
2019-02-17T10:35:40.381Z,25.29
2019-02-17T10:36:38.091Z,25.78
2019-02-17T10:37:38.098Z,25.89
2019-02-17T10:38:38.075Z,24.54
2019-02-17T10:39:38.147Z,23.52
2019-02-17T10:40:38.067Z,23.49
2019-02-17T10:41:38.032Z,23.33
2019-02-17T10:42:38.026Z,24.45
2019-02-17T10:43:38.036Z,25.06
2019-02-17T10:44:38.028Z,24.97
2019-02-17T10:45:38.004Z,24.67
2019-02-17T10:46:37.976Z,25.07
2019-02-17T10:47:37.981Z,24.68
2019-02-17T10:48:37.962Z,25.10
2019-02-17T10:49:37.978Z,25.78
2019-02-17T10:50:37.958Z,24.85
2019-02-17T10:51:37.929Z,24.04
2019-02-17T10:52:37.916Z,25.05
2019-02-17T10:53:37.903Z,24.04
2019-02-17T10:54:37.917Z,23.32
2019-02-17T10:55:37.885Z,23.33
2019-02-17T10:56:37.904Z,23.32
2019-02-17T10:57:37.858Z,23.00
2019-02-17T10:58:37.843Z,22.78
2019-02-17T10:59:37.844Z,23.00
2019-02-17T11:00:37.846Z,23.00
2019-02-17T11:01:37.842Z,23.71
2019-02-17T11:02:46.681Z,22.70
2019-02-17T11:03:38.800Z,23.72
2019-02-17T11:04:37.791Z,23.43
2019-02-17T11:05:37.800Z,24.46
2019-02-17T11:06:37.796Z,24.97
2019-02-17T11:07:37.870Z,25.05
2019-02-17T11:08:37.758Z,24.85
2019-02-17T11:09:37.732Z,23.61
2019-02-17T11:10:37.733Z,23.37
2019-02-17T11:11:37.718Z,22.17
2019-02-17T11:12:37.709Z,22.55
2019-02-17T11:13:37.731Z,21.36
2019-02-17T11:14:37.704Z,22.29
2019-02-17T11:15:37.667Z,23.00
2019-02-17T11:16:37.674Z,23.48
2019-02-17T11:17:38.476Z,22.17
2019-02-17T11:18:37.637Z,21.27
2019-02-17T11:19:37.670Z,22.97
2019-02-17T11:20:37.638Z,22.19
2019-02-17T11:21:37.607Z,23.39
2019-02-17T11:22:37.598Z,23.02
2019-02-17T11:23:37.585Z,23.43
2019-02-17T11:24:37.586Z,23.30
2019-02-17T11:25:37.607Z,22.97
2019-02-17T11:26:37.576Z,21.73
2019-02-17T11:27:37.596Z,20.92
2019-02-17T11:28:37.525Z,21.33
2019-02-17T11:29:37.532Z,20.54
2019-02-17T11:30:37.522Z,20.51
2019-02-17T11:31:37.508Z,19.60
2019-02-17T11:32:37.486Z,19.98
2019-02-17T11:33:37.492Z,19.20
2019-02-17T11:34:37.468Z,19.20
2019-02-17T11:35:37.448Z,19.90
2019-02-17T11:36:37.465Z,19.60
2019-02-17T11:37:37.468Z,19.13
2019-02-17T11:38:37.414Z,20.92
2019-02-17T11:39:40.042Z,20.13
2019-02-17T11:40:37.435Z,20.13
2019-02-17T11:41:37.382Z,21.55
2019-02-17T11:42:37.386Z,22.39
2019-02-17T11:43:37.411Z,22.78
2019-02-17T11:44:37.403Z,22.18
2019-02-17T11:45:37.343Z,21.67
2019-02-17T11:46:37.331Z,21.47
2019-02-17T11:47:37.341Z,21.15
2019-02-17T11:48:37.310Z,21.58
2019-02-17T11:49:37.309Z,22.69
2019-02-17T11:50:37.320Z,22.20
2019-02-17T11:51:37.333Z,23.32
2019-02-17T11:52:37.292Z,22.70
2019-02-17T11:53:37.279Z,22.37
2019-02-17T11:54:37.248Z,21.36
2019-02-17T11:55:37.255Z,21.55
2019-02-17T11:56:37.218Z,21.88
2019-02-17T11:57:37.228Z,22.09
2019-02-17T11:58:37.222Z,22.18
2019-02-17T11:59:37.207Z,21.05
2019-02-17T12:00:37.189Z,21.92
2019-02-17T12:01:37.193Z,21.40
2019-02-17T12:02:37.175Z,19.60
2019-02-17T12:03:37.146Z,20.50
2019-02-17T12:04:37.153Z,19.30
2019-02-17T12:05:37.128Z,19.42
2019-02-17T12:06:37.157Z,20.15
2019-02-17T12:07:37.100Z,21.37
2019-02-17T12:08:37.094Z,22.81
2019-02-17T12:09:37.088Z,22.82
2019-02-17T12:10:37.080Z,22.91
2019-02-17T12:11:37.085Z,23.04
2019-02-17T12:12:37.078Z,23.94
2019-02-17T12:13:37.038Z,23.94
2019-02-17T12:14:37.019Z,23.91
2019-02-17T12:15:37.034Z,23.48
2019-02-17T12:16:37.414Z,22.77
2019-02-17T12:17:36.996Z,21.64
2019-02-17T12:18:36.987Z,21.22
2019-02-17T12:19:36.967Z,20.41
2019-02-17T12:20:36.963Z,20.31
2019-02-17T12:21:36.964Z,19.62
2019-02-17T12:22:36.964Z,20.72
2019-02-17T12:23:36.964Z,20.72
2019-02-17T12:24:36.919Z,20.54
2019-02-17T12:25:36.916Z,21.25
2019-02-17T12:26:36.912Z,21.27
2019-02-17T12:27:36.894Z,22.29
2019-02-17T12:28:36.880Z,23.42
2019-02-17T12:29:38.390Z,23.30
2019-02-17T12:30:36.853Z,23.49
2019-02-17T12:31:36.845Z,22.69
2019-02-17T12:32:36.836Z,22.27
2019-02-17T12:33:36.850Z,22.34
2019-02-17T12:34:36.816Z,21.05
2019-02-17T12:35:36.832Z,21.85
2019-02-17T12:36:36.789Z,21.65
2019-02-17T12:37:36.775Z,21.64
2019-02-17T12:38:36.780Z,21.52
2019-02-17T12:39:36.781Z,21.01
2019-02-17T12:40:36.753Z,21.00
2019-02-17T12:41:36.746Z,21.29
2019-02-17T12:42:36.749Z,20.29
2019-02-17T12:43:36.756Z,19.79
2019-02-17T12:44:36.725Z,19.64
2019-02-17T12:45:36.697Z,21.42
2019-02-17T12:46:36.727Z,20.42
2019-02-17T12:47:36.700Z,20.52
2019-02-17T12:48:36.655Z,20.43
2019-02-17T12:49:36.696Z,21.03
2019-02-17T12:50:36.648Z,21.34
2019-02-17T12:51:36.636Z,20.73
2019-02-17T12:52:46.510Z,21.15
2019-02-17T12:53:37.630Z,22.09